Dades meteomassalio
Diari Summary for Agost 15, 2017 Units:  English    Metric   Both
« Previous Day
Next Day »
Diari Semanal Mensual Anual Personalitzat
  Maxima: Minima: Mijana:
Temperatura: TemperatureC °F 16.2 °F 24.4 °F
Rosada: DewpointC °F 10.8 °F 15.7 °F
Humitat: Humidity % 39 % 59 %
Velocitat del vent: WindSpeedKMH mph 0.0 mph 7.8 mph
Racha vent: WindSpeedGustKMH mph - -
Vent:- - ESE
Pressio: PressurehPa in 1013.1 in -
Pluja: 0.3 in    
Historical Graphs
 
 
Tabular Data for Agost 15, 2017
Time Temperature Dew Point Pressure Wind Wind Speed Wind Gust Humidity Rainfall Rate (Hourly) solar Conditions
TemperatureC °F DewpointC °F PressurehPa in Calm     Humidity % HourlyPrecipMM in SolarRadiationWatts/m^2 W/m2 Conditions
00:04 23.2 °F 12.4 °F 1015.5 in Calm     51 % 0.0 in 0.0 W/m2 CLR
00:09 23.1 °F 12.7 °F 1015.8 in Calm     52 % 0.0 in 0.0 W/m2 CLR
00:14 22.9 °F 13.4 °F 1015.8 in Calm     55 % 0.0 in 0.0 W/m2 CLR
00:19 22.8 °F 13.6 °F 1015.8 in Calm     56 % 0.0 in 0.0 W/m2 CLR
00:24 22.6 °F 12.8 °F 1015.5 in Calm     54 % 0.0 in 0.0 W/m2 CLR
00:29 22.4 °F 13.2 °F 1015.5 in Calm     56 % 0.0 in 0.0 W/m2 CLR
00:34 22.3 °F 13.1 °F 1015.8 in Calm     56 % 0.0 in 0.0 W/m2 CLR
00:39 22.0 °F 12.8 °F 1015.8 in Calm     56 % 0.0 in 0.0 W/m2 CLR
00:44 21.9 °F 12.7 °F 1015.8 in Calm     56 % 0.0 in 0.0 W/m2 CLR
00:49 21.7 °F 13.1 °F 1015.8 in Calm     58 % 0.0 in 0.0 W/m2 CLR
00:54 21.6 °F 12.4 °F 1015.8 in Calm     56 % 0.0 in 0.0 W/m2 CLR
00:59 21.4 °F 13.3 °F 1015.8 in Calm     60 % 0.0 in 0.0 W/m2 CLR
01:04 21.5 °F 13.4 °F 1015.8 in Calm     60 % 0.0 in 0.0 W/m2 CLR
01:09 21.4 °F 12.3 °F 1015.8 in Calm     56 % 0.0 in 0.0 W/m2 CLR
01:14 21.3 °F 12.7 °F 1015.8 in Calm     58 % 0.0 in 0.0 W/m2 CLR
01:19 21.1 °F 12.8 °F 1015.8 in Calm     59 % 0.0 in 0.0 W/m2 CLR
01:24 21.0 °F 12.2 °F 1015.8 in Calm     57 % 0.0 in 0.0 W/m2 CLR
01:29 20.9 °F 12.3 °F 1015.8 in Calm     58 % 0.0 in 0.0 W/m2 CLR
01:34 20.7 °F 12.2 °F 1015.8 in Calm     58 % 0.0 in 0.0 W/m2 CLR
01:39 20.7 °F 12.1 °F 1015.8 in Calm     58 % 0.0 in 0.0 W/m2 CLR
01:44 20.6 °F 11.4 °F 1015.8 in Calm     56 % 0.0 in 0.0 W/m2 CLR
01:49 20.4 °F 11.3 °F 1015.8 in Calm     56 % 0.0 in 0.0 W/m2 CLR
01:54 20.2 °F 11.7 °F 1015.8 in Calm     58 % 0.0 in 0.0 W/m2 CLR
01:59 20.1 °F 12.3 °F 1015.8 in Calm     61 % 0.0 in 0.0 W/m2 CLR
02:04 20.1 °F 11.8 °F 1015.8 in Calm     59 % 0.0 in 0.0 W/m2 CLR
02:09 20.1 °F 12.3 °F 1015.8 in Calm     61 % 0.0 in 0.0 W/m2 CLR
02:14 20.1 °F 13.3 °F 1015.8 in Calm     65 % 0.0 in 0.0 W/m2 CLR
02:19 20.0 °F 11.5 °F 1015.8 in Calm     58 % 0.0 in 0.0 W/m2 CLR
02:25 19.7 °F 11.5 °F 1015.8 in Calm     59 % 0.0 in 0.0 W/m2 CLR
02:30 19.5 °F 11.3 °F 1015.5 in Calm     59 % 0.0 in 0.0 W/m2 CLR
02:35 19.3 °F 10.8 °F 1015.8 in Calm     58 % 0.0 in 0.0 W/m2 CLR
02:40 19.2 °F 11.5 °F 1015.8 in Calm     61 % 0.0 in 0.0 W/m2 CLR
02:45 19.1 °F 11.4 °F 1015.8 in Calm     61 % 0.0 in 0.0 W/m2 CLR
02:50 18.9 °F 11.5 °F 1015.8 in Calm     62 % 0.0 in 0.0 W/m2 CLR
02:55 18.8 °F 11.2 °F 1015.8 in Calm     61 % 0.0 in 0.0 W/m2 CLR
03:00 18.9 °F 12.2 °F 1015.8 in Calm     65 % 0.0 in 0.0 W/m2 CLR
03:05 18.9 °F 11.7 °F 1015.8 in Calm     63 % 0.0 in 0.0 W/m2 CLR
03:10 18.9 °F 12.2 °F 1016.1 in Calm   0.8 mph 65 % 0.0 in 0.0 W/m2 CLR
03:15 19.4 °F 14.4 °F 1016.1 in Calm     73 % 0.0 in 0.0 W/m2 CLR
03:20 19.4 °F 11.9 °F 1016.1 in Calm     62 % 0.0 in 0.0 W/m2 CLR
03:25 19.1 °F 11.4 °F 1016.1 in Calm     61 % 0.0 in 0.0 W/m2 CLR
03:30 18.9 °F 11.9 °F 1016.1 in Calm     64 % 0.0 in 0.0 W/m2 CLR
03:35 18.8 °F 11.9 °F 1016.1 in Calm     64 % 0.0 in 0.0 W/m2 CLR
03:40 18.8 °F 12.3 °F 1016.1 in Calm     66 % 0.0 in 0.0 W/m2 CLR
03:45 18.6 °F 11.4 °F 1016.5 in Calm     63 % 0.0 in 0.0 W/m2 CLR
03:50 18.3 °F 11.2 °F 1016.5 in Calm     63 % 0.0 in 0.0 W/m2 CLR
03:55 18.2 °F 11.3 °F 1016.5 in Calm     64 % 0.0 in 0.0 W/m2 CLR
04:00 18.0 °F 10.8 °F 1016.1 in Calm     63 % 0.0 in 0.0 W/m2 CLR
04:05 17.9 °F 11.9 °F 1016.1 in Calm     68 % 0.0 in 0.0 W/m2 CLR
04:10 17.9 °F 11.4 °F 1016.1 in Calm     66 % 0.0 in 0.0 W/m2 CLR
04:11 17.9 °F 11.2 °F 1016.1 in Calm     65 % 0.0 in 0.0 W/m2 CLR
04:16 17.8 °F 11.2 °F 1016.5 in Calm     65 % 0.0 in 0.0 W/m2 CLR
04:21 17.7 °F 11.5 °F 1016.1 in Calm     67 % 0.0 in 0.0 W/m2 CLR
04:26 17.8 °F 11.8 °F 1016.5 in Calm     68 % 0.0 in 0.0 W/m2 CLR
04:31 17.8 °F 11.8 °F 1016.5 in Calm     68 % 0.0 in 0.0 W/m2 CLR
04:36 18.0 °F 13.3 °F 1016.5 in Calm     74 % 0.0 in 0.0 W/m2 CLR
04:41 18.0 °F 13.5 °F 1016.5 in Calm     75 % 0.0 in 0.0 W/m2 CLR
04:46 17.7 °F 11.3 °F 1016.1 in Calm     66 % 0.0 in 0.0 W/m2 CLR
04:51 17.6 °F 11.8 °F 1016.1 in Calm     69 % 0.0 in 0.0 W/m2 CLR
04:56 17.4 °F 11.7 °F 1016.1 in Calm     69 % 0.0 in 0.0 W/m2 CLR
05:01 17.4 °F 11.8 °F 1016.1 in Calm     70 % 0.0 in 0.0 W/m2 CLR
05:06 17.4 °F 12.6 °F 1016.5 in Calm     73 % 0.0 in 0.0 W/m2 CLR
05:11 17.4 °F 12.1 °F 1016.5 in Calm     71 % 0.0 in 0.0 W/m2 CLR
05:16 17.4 °F 11.9 °F 1016.1 in Calm     70 % 0.0 in 0.0 W/m2 CLR
05:21 17.3 °F 11.2 °F 1016.1 in Calm     67 % 0.0 in 0.0 W/m2 CLR
05:24 17.2 °F 11.3 °F 1016.1 in Calm     68 % 0.0 in 0.0 W/m2 CLR
05:29 17.1 °F 11.1 °F 1016.1 in Calm     68 % 0.0 in 0.0 W/m2 CLR
05:34 17.0 °F 11.9 °F 1016.1 in Calm     72 % 0.0 in 0.0 W/m2 CLR
05:39 16.9 °F 11.7 °F 1016.1 in Calm     71 % 0.0 in 0.0 W/m2 CLR
05:44 17.0 °F 12.3 °F 1016.1 in WSW 5.6 mph 5.6 mph 74 % 0.0 in 0.0 W/m2 CLR
05:49 17.1 °F 12.6 °F 1016.5 in Calm     75 % 0.0 in 0.0 W/m2 CLR
05:54 17.0 °F 12.1 °F 1016.5 in Calm     73 % 0.0 in 0.0 W/m2 CLR
05:59 16.9 °F 11.6 °F 1016.5 in Calm     71 % 0.0 in 0.0 W/m2 CLR
06:04 16.7 °F 11.7 °F 1016.5 in SSW 3.7 mph 3.7 mph 72 % 0.0 in 0.0 W/m2 CLR
06:09 16.7 °F 11.8 °F 1016.5 in SSW 4.8 mph 4.8 mph 73 % 0.0 in 0.0 W/m2 CLR
06:14 16.8 °F 12.8 °F 1016.5 in Calm     77 % 0.0 in 0.0 W/m2 CLR
06:19 16.9 °F 12.7 °F 1016.5 in Calm     76 % 0.0 in 0.0 W/m2 CLR
06:24 17.0 °F 12.6 °F 1016.5 in Calm     75 % 0.0 in 0.0 W/m2 CLR
06:29 17.0 °F 12.6 °F 1016.5 in Calm     75 % 0.0 in 0.0 W/m2 CLR
06:34 16.9 °F 12.3 °F 1016.5 in Calm     74 % 0.0 in 0.0 W/m2 CLR
06:39 16.8 °F 12.2 °F 1016.5 in Calm     74 % 0.0 in 0.0 W/m2 CLR
06:44 16.7 °F 12.3 °F 1016.5 in Calm     75 % 0.0 in 0.0 W/m2 CLR
06:49 16.6 °F 12.2 °F 1016.5 in Calm     75 % 0.0 in 0.0 W/m2 CLR
06:54 16.5 °F 12.3 °F 1016.5 in Calm     76 % 0.0 in 0.0 W/m2 CLR
06:59 16.4 °F 12.3 °F 1016.8 in Calm     77 % 0.0 in 0.0 W/m2 CLR
07:04 16.4 °F 12.6 °F 1016.8 in Calm     78 % 0.0 in 0.0 W/m2 OVC
07:09 16.3 °F 12.1 °F 1016.8 in Calm     76 % 0.0 in 0.0 W/m2 OVC
07:15 16.3 °F 12.1 °F 1016.8 in Calm     76 % 0.0 in 7.0 W/m2 OVC
07:20 16.2 °F 12.1 °F 1016.8 in Calm     77 % 0.0 in 11.0 W/m2 BKN
07:25 16.2 °F 12.6 °F 1016.8 in Calm     79 % 0.0 in 14.0 W/m2 BKN
07:30 16.3 °F 12.6 °F 1016.8 in Calm     79 % 0.0 in 21.0 W/m2 BKN
07:35 16.3 °F 12.6 °F 1016.8 in Calm     79 % 0.0 in 26.0 W/m2 BKN
07:40 16.4 °F 12.9 °F 1016.8 in Calm     80 % 0.0 in 32.0 W/m2 BKN
07:45 16.6 °F 12.8 °F 1016.8 in Calm     78 % 0.0 in 39.0 W/m2 BKN
07:50 16.6 °F 12.2 °F 1016.8 in Calm     75 % 0.0 in 49.0 W/m2 SCT
07:55 16.7 °F 12.1 °F 1017.2 in Calm     74 % 0.0 in 58.0 W/m2 SCT
08:00 16.8 °F 12.1 °F 1016.8 in Calm     74 % 0.0 in 65.0 W/m2 SCT
08:05 16.9 °F 12.6 °F 1017.2 in Calm   0.6 mph 76 % 0.0 in 77.0 W/m2 FEW
08:10 17.1 °F 12.8 °F 1017.2 in West 1.9 mph   76 % 0.0 in 93.0 W/m2 CLR
08:15 17.3 °F 13.3 °F 1017.5 in Calm     77 % 0.0 in 107.0 W/m2 CLR
08:20 17.7 °F 13.2 °F 1017.2 in Calm     75 % 0.0 in 118.0 W/m2 CLR
08:25 18.1 °F 13.3 °F 1017.2 in Calm     74 % 0.0 in 132.0 W/m2 CLR
08:30 18.4 °F 13.4 °F 1017.2 in Calm     73 % 0.0 in 149.0 W/m2 CLR
08:35 18.8 °F 13.7 °F 1017.2 in Calm     72 % 0.0 in 174.0 W/m2 CLR
08:40 19.3 °F 13.9 °F 1017.2 in Calm     71 % 0.0 in 206.0 W/m2 CLR
08:45 19.8 °F 14.2 °F 1017.2 in Calm     70 % 0.0 in 251.0 W/m2 CLR
08:50 20.3 °F 14.2 °F 1017.2 in Calm     68 % 0.0 in 288.0 W/m2 CLR
08:55 20.8 °F 14.5 °F 1017.2 in Calm     67 % 0.0 in 281.0 W/m2 CLR
09:00 21.2 °F 13.9 °F 1017.2 in Calm     63 % 0.0 in 276.0 W/m2 CLR
09:05 21.6 °F 14.0 °F 1017.2 in Calm     62 % 0.0 in 271.0 W/m2 CLR
09:10 22.0 °F 14.4 °F 1017.2 in Calm     62 % 0.0 in 264.0 W/m2 CLR
09:15 22.4 °F 14.3 °F 1017.2 in Calm     60 % 0.0 in 306.0 W/m2 CLR
09:20 22.8 °F 14.6 °F 1017.2 in Calm     60 % 0.0 in 329.0 W/m2 CLR
09:25 23.2 °F 15.0 °F 1017.2 in Calm     60 % 0.0 in 160.0 W/m2 CLR
09:30 23.7 °F 14.9 °F 1017.2 in Calm     58 % 0.0 in 330.0 W/m2 CLR
09:35 23.7 °F 15.2 °F 1017.2 in Calm     59 % 0.0 in 155.0 W/m2 CLR
09:40 23.7 °F 15.9 °F 1016.8 in Calm     62 % 0.0 in 406.0 W/m2 CLR
09:45 23.9 °F 16.2 °F 1016.8 in Calm     62 % 0.0 in 388.0 W/m2 CLR
09:50 24.1 °F 16.1 °F 1016.8 in Calm     61 % 0.0 in 397.0 W/m2 CLR
09:55 24.3 °F 16.3 °F 1016.5 in Calm     61 % 0.0 in 413.0 W/m2 CLR
10:00 24.7 °F 16.4 °F 1016.5 in Calm     60 % 0.0 in 427.0 W/m2 CLR
10:05 24.9 °F 16.7 °F 1016.5 in Calm     60 % 0.0 in 441.0 W/m2 CLR
10:10 25.5 °F 17.2 °F 1016.5 in Calm     60 % 0.0 in 454.0 W/m2 CLR
10:15 26.0 °F 17.1 °F 1016.5 in Calm     58 % 0.0 in 469.0 W/m2 CLR
10:20 26.3 °F 17.1 °F 1016.8 in Calm     57 % 0.0 in 490.0 W/m2 CLR
10:25 26.4 °F 17.2 °F 1016.5 in Calm     57 % 0.0 in 506.0 W/m2 CLR
10:30 26.8 °F 17.3 °F 1016.5 in ENE 8.0 mph 8.0 mph 56 % 0.0 in 519.0 W/m2 CLR
10:35 27.0 °F 17.2 °F 1016.5 in ENE 6.4 mph 6.4 mph 55 % 0.0 in 531.0 W/m2 CLR
10:40 27.3 °F 16.6 °F 1016.5 in NE 5.6 mph 5.6 mph 52 % 0.0 in 543.0 W/m2 CLR
10:45 27.9 °F 17.1 °F 1016.5 in Calm     52 % 0.0 in 557.0 W/m2 CLR
10:50 28.2 °F 16.8 °F 1016.5 in East 11.3 mph 11.3 mph 50 % 0.0 in 570.0 W/m2 CLR
10:55 28.2 °F 16.5 °F 1016.5 in Calm     49 % 0.0 in 582.0 W/m2 CLR
11:00 28.5 °F 15.4 °F 1016.5 in NE 13.0 mph 13.0 mph 45 % 0.0 in 598.0 W/m2 CLR
11:05 28.8 °F 14.6 °F 1016.5 in NE 13.0 mph 13.0 mph 42 % 0.0 in 599.0 W/m2 CLR
11:10 28.9 °F 14.4 °F 1016.5 in NE 9.3 mph 9.3 mph 41 % 0.0 in 615.0 W/m2 CLR
11:15 29.1 °F 14.8 °F 1016.5 in NE 9.3 mph 9.3 mph 42 % 0.0 in 622.0 W/m2 CLR
11:20 29.1 °F 15.6 °F 1016.5 in NE 9.7 mph 9.7 mph 44 % 0.0 in 640.0 W/m2 CLR
11:25 29.2 °F 15.7 °F 1016.1 in ENE 9.3 mph 9.3 mph 44 % 0.0 in 654.0 W/m2 CLR
11:30 29.2 °F 15.0 °F 1016.5 in ESE 9.3 mph 9.3 mph 42 % 0.0 in 663.0 W/m2 CLR
11:35 29.2 °F 15.3 °F 1016.1 in ENE 8.0 mph 8.0 mph 43 % 0.0 in 671.0 W/m2 CLR
11:40 29.3 °F 15.1 °F 1016.1 in ENE 9.3 mph 9.3 mph 42 % 0.0 in 682.0 W/m2 CLR
11:45 29.4 °F 15.6 °F 1016.5 in East 14.5 mph 14.5 mph 43 % 0.0 in 698.0 W/m2 CLR
11:50 29.4 °F 15.6 °F 1016.1 in ESE 6.4 mph 6.4 mph 43 % 0.0 in 703.0 W/m2 CLR
11:55 29.3 °F 15.1 °F 1016.1 in Calm     42 % 0.0 in 719.0 W/m2 CLR
12:00 29.8 °F 15.8 °F 1016.1 in North 5.6 mph   43 % 0.0 in 729.0 W/m2 CLR
12:05 30.3 °F 15.9 °F 1016.1 in ENE 5.6 mph 5.6 mph 42 % 0.0 in 740.0 W/m2 CLR
12:10 30.4 °F 16.1 °F 1016.1 in ENE 9.3 mph 9.3 mph 42 % 0.0 in 754.0 W/m2 CLR
12:15 30.6 °F 16.2 °F 1016.1 in SE 7.4 mph 7.4 mph 42 % 0.0 in 805.0 W/m2 CLR
12:20 30.5 °F 15.8 °F 1016.1 in East 5.6 mph 5.6 mph 41 % 0.0 in 650.0 W/m2 CLR
12:25 30.3 °F 16.3 °F 1016.1 in NE 5.6 mph 5.6 mph 43 % 0.0 in 846.0 W/m2 CLR
12:30 30.5 °F 16.5 °F 1015.8 in Calm     43 % 0.0 in 522.0 W/m2 CLR
12:35 30.9 °F 17.6 °F 1015.8 in East 9.3 mph 9.3 mph 45 % 0.0 in 823.0 W/m2 CLR
12:40 31.1 °F 17.4 °F 1015.8 in East 13.0 mph 13.0 mph 44 % 0.0 in 847.0 W/m2 CLR
12:45 30.8 °F 17.5 °F 1015.8 in ESE 7.4 mph 7.4 mph 45 % 0.0 in 872.0 W/m2 CLR
12:50 31.0 °F 17.3 °F 1015.8 in East 3.2 mph 3.2 mph 44 % 0.0 in 879.0 W/m2 CLR
12:55 31.5 °F 17.4 °F 1015.8 in NNE 9.3 mph 9.3 mph 43 % 0.0 in 888.0 W/m2 CLR
13:00 31.9 °F 17.8 °F 1015.5 in North 5.6 mph 5.6 mph 43 % 0.0 in 909.0 W/m2 CLR
13:05 32.2 °F 17.6 °F 1015.5 in East 11.1 mph 11.1 mph 42 % 0.0 in 925.0 W/m2 CLR
13:11 32.2 °F 17.7 °F 1015.5 in ENE 11.1 mph 11.1 mph 42 % 0.0 in 884.0 W/m2 CLR
13:16 32.5 °F 17.9 °F 1015.5 in ESE 16.7 mph 16.7 mph 42 % 0.0 in 847.0 W/m2 CLR
13:21 32.6 °F 17.3 °F 1015.5 in SE 14.8 mph 14.8 mph 40 % 0.0 in 838.0 W/m2 CLR
13:26 32.6 °F 16.8 °F 1015.5 in SE 19.3 mph 19.3 mph 39 % 0.0 in 835.0 W/m2 CLR
13:31 32.5 °F 16.8 °F 1015.1 in SSE 18.5 mph 18.5 mph 39 % 0.0 in 838.0 W/m2 CLR
13:36 32.3 °F 17.8 °F 1015.1 in SSE 16.7 mph 16.7 mph 42 % 0.0 in 838.0 W/m2 CLR
13:41 32.6 °F 18.1 °F 1015.1 in ESE 12.9 mph 12.9 mph 42 % 0.0 in 831.0 W/m2 CLR
13:46 32.6 °F 18.1 °F 1015.1 in SE 18.5 mph 18.5 mph 42 % 0.0 in 833.0 W/m2 CLR
13:51 32.8 °F 18.2 °F 1014.8 in East 13.0 mph 13.0 mph 42 % 0.0 in 847.0 W/m2 CLR
13:56 33.0 °F 18.4 °F 1014.8 in SE 18.5 mph 18.5 mph 42 % 0.0 in 861.0 W/m2 CLR
14:01 32.7 °F 18.1 °F 1015.1 in ESE 16.7 mph 16.7 mph 42 % 0.0 in 633.0 W/m2 CLR
14:06 32.6 °F 18.4 °F 1015.1 in SSE 18.5 mph 18.5 mph 43 % 0.0 in 868.0 W/m2 CLR
14:11 32.4 °F 17.9 °F 1014.8 in SE 18.5 mph 18.5 mph 42 % 0.0 in 851.0 W/m2 CLR
14:16 32.6 °F 18.3 °F 1014.8 in ESE 18.5 mph 18.5 mph 43 % 0.0 in 853.0 W/m2 CLR
14:21 32.6 °F 18.0 °F 1014.8 in SE 20.4 mph 20.4 mph 42 % 0.0 in 833.0 W/m2 CLR
14:26 32.4 °F 18.2 °F 1014.4 in ESE 24.1 mph 24.1 mph 43 % 0.0 in 868.0 W/m2 CLR
14:31 32.4 °F 18.6 °F 1014.4 in East 24.1 mph 24.1 mph 44 % 0.0 in 882.0 W/m2 CLR
14:36 32.7 °F 18.5 °F 1014.1 in ESE 18.5 mph 18.5 mph 43 % 0.0 in 923.0 W/m2 CLR
14:41 33.2 °F 18.9 °F 1014.4 in East 25.7 mph 25.7 mph 43 % 0.0 in 881.0 W/m2 CLR
14:46 32.8 °F 18.6 °F 1014.4 in ESE 22.2 mph 22.2 mph 43 % 0.0 in 585.0 W/m2 CLR
14:51 32.6 °F 18.8 °F 1014.4 in ESE 22.2 mph 22.2 mph 44 % 0.0 in 680.0 W/m2 CLR
14:56 32.3 °F 18.4 °F 1014.4 in ESE 25.7 mph 25.7 mph 44 % 0.0 in 304.0 W/m2 CLR
15:01 32.1 °F 18.6 °F 1014.4 in SE 18.5 mph 18.5 mph 45 % 0.0 in 272.0 W/m2 CLR
15:06 31.9 °F 18.6 °F 1014.8 in SSE 18.5 mph 18.5 mph 45 % 0.0 in 260.0 W/m2 CLR
15:11 31.7 °F 19.0 °F 1014.8 in SE 22.2 mph 22.2 mph 47 % 0.0 in 250.0 W/m2 CLR
15:16 31.3 °F 18.9 °F 1014.4 in SE 24.1 mph 24.1 mph 48 % 0.0 in 227.0 W/m2 CLR
15:21 31.1 °F 19.1 °F 1014.1 in ESE 18.5 mph 18.5 mph 49 % 0.0 in 176.0 W/m2 CLR
15:26 30.8 °F 19.2 °F 1014.1 in East 19.3 mph 19.3 mph 50 % 0.0 in 132.0 W/m2 CLR
15:31 30.2 °F 19.3 °F 1014.1 in ESE 22.2 mph 22.2 mph 52 % 0.0 in 100.0 W/m2 CLR
15:36 30.1 °F 19.5 °F 1014.1 in ESE 22.2 mph 22.2 mph 53 % 0.0 in 81.0 W/m2 CLR
15:41 29.8 °F 19.5 °F 1014.4 in ESE 22.2 mph 22.2 mph 54 % 0.0 in 72.0 W/m2 FEW
15:46 29.1 °F 19.4 °F 1014.4 in ESE 18.5 mph 18.5 mph 56 % 0.0 in 72.0 W/m2 FEW
15:51 28.8 °F 19.4 °F 1014.4 in East 24.1 mph 24.1 mph 57 % 0.0 in 72.0 W/m2 FEW
15:56 28.7 °F 19.6 °F 1014.4 in ESE 20.4 mph 20.4 mph 58 % 0.0 in 69.0 W/m2 FEW
16:01 28.8 °F 19.7 °F 1014.8 in ESE 9.7 mph 9.7 mph 58 % 0.0 in 62.0 W/m2 FEW
16:06 28.9 °F 19.5 °F 1014.4 in ESE 11.1 mph 11.1 mph 57 % 0.0 in 56.0 W/m2 SCT
16:11 28.8 °F 19.7 °F 1014.4 in East 11.1 mph 11.1 mph 58 % 0.0 in 54.0 W/m2 SCT
16:16 28.6 °F 19.8 °F 1014.4 in ENE 14.8 mph 14.8 mph 59 % 0.0 in 44.0 W/m2 SCT
16:21 28.3 °F 19.6 °F 1014.1 in ENE 11.1 mph 11.1 mph 59 % 0.0 in 37.0 W/m2 BKN
16:26 28.2 °F 19.7 °F 1014.8 in Calm     60 % 0.0 in 33.0 W/m2 BKN
16:31 28.2 °F 19.4 °F 1014.1 in ESE 13.0 mph 13.0 mph 59 % 0.0 in 26.0 W/m2 BKN
16:36 28.1 °F 19.3 °F 1014.4 in SE 24.1 mph 24.1 mph 59 % 0.0 in 21.0 W/m2 BKN
16:41 27.9 °F 19.4 °F 1014.1 in ESE 24.1 mph 24.1 mph 60 % 0.0 in 18.0 W/m2 BKN
16:46 27.7 °F 19.5 °F 1015.1 in Calm     61 % 0.0 in 16.0 W/m2 BKN
16:51 27.7 °F 19.5 °F 1015.5 in Calm     61 % 0.0 in 14.0 W/m2 BKN
16:56 27.7 °F 19.4 °F 1015.5 in NE 8.0 mph 8.0 mph 61 % 0.0 in 14.0 W/m2 BKN
17:01 27.6 °F 19.6 °F 1015.5 in ENE 11.1 mph 11.1 mph 62 % 0.0 in 12.0 W/m2 BKN
17:06 27.4 °F 19.7 °F 1015.5 in ENE 11.1 mph 11.1 mph 63 % 0.0 in 12.0 W/m2 BKN
17:11 27.2 °F 19.6 °F 1015.1 in NE 11.3 mph 11.3 mph 63 % 0.0 in 11.0 W/m2 BKN
17:16 27.1 °F 19.7 °F 1015.1 in NE 13.0 mph 13.0 mph 64 % 0.0 in 12.0 W/m2 BKN
17:21 26.9 °F 19.6 °F 1015.5 in East 9.3 mph 9.3 mph 64 % 0.0 in 12.0 W/m2 BKN
17:26 26.9 °F 19.8 °F 1015.5 in ESE 6.4 mph 6.4 mph 65 % 0.0 in 14.0 W/m2 BKN
17:31 26.9 °F 19.6 °F 1015.1 in ESE 9.3 mph 9.3 mph 64 % 0.0 in 16.0 W/m2 BKN
17:36 27.0 °F 19.3 °F 1015.8 in SE 16.7 mph 16.7 mph 63 % 0.0 in 18.0 W/m2 BKN
17:41 27.1 °F 19.4 °F 1015.5 in South 19.3 mph 19.3 mph 63 % 0.0 in 18.0 W/m2 BKN
17:46 27.4 °F 18.7 °F 1014.1 in SSE 38.9 mph 38.9 mph 59 % 0.0 in 19.0 W/m2 BKN
17:51 30.2 °F 18.6 °F 1014.8 in SSE 44.4 mph 44.4 mph 50 % 0.0 in 21.0 W/m2 BKN
17:56 27.4 °F 19.3 °F 1014.4 in South 31.5 mph 31.5 mph 61 % 0.0 in 19.0 W/m2 BKN
18:01 26.8 °F 19.4 °F 1014.8 in South 31.5 mph 31.5 mph 64 % 0.0 in 21.0 W/m2 BKN
18:06 26.7 °F 19.3 °F 1015.1 in SSW 48.1 mph 48.1 mph 64 % 0.0 in 23.0 W/m2 BKN
18:11 26.7 °F 19.6 °F 1014.8 in South 46.3 mph 46.3 mph 65 % 0.0 in 26.0 W/m2 BKN
18:16 26.6 °F 19.7 °F 1014.4 in South 42.6 mph 42.6 mph 66 % 0.0 in 30.0 W/m2 BKN
18:21 26.4 °F 19.8 °F 1014.4 in South 48.1 mph 48.1 mph 67 % 0.3 in 32.0 W/m2 RA
18:26 26.6 °F 18.7 °F 1014.1 in South 48.1 mph 48.1 mph 62 % 0.3 in 37.0 W/m2 BKN
18:31 26.2 °F 19.4 °F 1014.1 in SSE 44.4 mph 44.4 mph 66 % 0.3 in 44.0 W/m2 BKN
18:36 26.1 °F 19.0 °F 1014.1 in SSE 37.0 mph 37.0 mph 65 % 0.3 in 53.0 W/m2 BKN
18:41 27.2 °F 17.6 °F 1013.8 in South 33.3 mph 33.3 mph 56 % 0.3 in 65.0 W/m2 SCT
18:46 27.8 °F 16.8 °F 1013.8 in South 42.6 mph 42.6 mph 51 % 0.3 in 83.0 W/m2 SCT
18:51 27.5 °F 17.1 °F 1013.4 in South 42.6 mph 42.6 mph 53 % 0.3 in 95.0 W/m2 FEW
18:56 28.8 °F 15.0 °F 1013.4 in SSW 42.6 mph 42.6 mph 43 % 0.3 in 97.0 W/m2 CLR
19:01 29.6 °F 14.9 °F 1013.4 in SE 20.4 mph 20.4 mph 41 % 0.3 in 79.0 W/m2 CLR
19:06 29.0 °F 17.2 °F 1014.1 in SSW 20.9 mph 20.9 mph 49 % 0.3 in 60.0 W/m2 FEW
19:11 27.5 °F 17.7 °F 1014.1 in SSE 43.4 mph 43.4 mph 55 % 0.3 in 76.0 W/m2 FEW
19:16 27.9 °F 17.4 °F 1014.1 in South 38.9 mph 38.9 mph 53 % 0.3 in 84.0 W/m2 FEW
19:27 27.8 °F 17.0 °F 1013.1 in SSE 57.9 mph 57.9 mph 52 % 0.0 in 90.0 W/m2 CLR
19:32 28.6 °F 16.5 °F 1013.4 in SW 27.8 mph 27.8 mph 48 % 0.0 in 84.0 W/m2 CLR
19:37 28.9 °F 16.5 °F 1013.4 in SW 14.8 mph 14.8 mph 47 % 0.0 in 90.0 W/m2 CLR
19:42 28.9 °F 17.4 °F 1013.8 in SW 20.4 mph 20.4 mph 50 % 0.0 in 190.0 W/m2 CLR
19:47 28.7 °F 18.2 °F 1014.1 in SSW 18.5 mph 18.5 mph 53 % 0.0 in 181.0 W/m2 CLR
19:52 28.6 °F 18.3 °F 1014.1 in South 33.3 mph 33.3 mph 54 % 0.0 in 167.0 W/m2 CLR
19:57 28.6 °F 18.3 °F 1013.8 in South 24.1 mph 24.1 mph 54 % 0.0 in 149.0 W/m2 CLR
20:02 28.7 °F 18.2 °F 1013.8 in South 30.6 mph 30.6 mph 53 % 0.0 in 135.0 W/m2 CLR
20:07 29.0 °F 17.8 °F 1014.1 in SSE 18.5 mph 18.5 mph 51 % 0.0 in 125.0 W/m2 CLR
20:12 29.1 °F 17.6 °F 1014.1 in South 9.3 mph 9.3 mph 50 % 0.0 in 116.0 W/m2 CLR
20:17 29.2 °F 17.4 °F 1013.8 in ESE 14.8 mph 14.8 mph 49 % 0.0 in 98.0 W/m2 CLR
20:22 29.3 °F 17.8 °F 1014.1 in Calm     50 % 0.0 in 84.0 W/m2 CLR
20:27 29.2 °F 17.3 °F 1014.1 in ENE 7.4 mph 8.0 mph 49 % 0.0 in 65.0 W/m2 SCT
20:32 29.2 °F 17.3 °F 1014.4 in Calm     49 % 0.0 in 44.0 W/m2 BKN
20:37 28.9 °F 17.7 °F 1014.4 in NNW 18.5 mph 18.5 mph 51 % 0.0 in 32.0 W/m2 BKN
20:42 28.7 °F 17.2 °F 1014.8 in NW 3.7 mph 3.7 mph 50 % 0.0 in 23.0 W/m2 BKN
20:47 28.8 °F 17.0 °F 1014.8 in Calm     49 % 0.0 in 16.0 W/m2 BKN
20:52 28.9 °F 17.1 °F 1014.8 in Calm     49 % 0.0 in 11.0 W/m2 BKN
20:57 28.6 °F 17.5 °F 1015.1 in Calm     51 % 0.0 in 7.0 W/m2 BKN
21:02 28.4 °F 16.9 °F 1015.1 in Calm     50 % 0.0 in 0.0 W/m2 CLR
21:07 28.4 °F 16.7 °F 1015.1 in SE 8.0 mph 8.0 mph 49 % 0.0 in 0.0 W/m2 CLR
21:12 28.8 °F 16.7 °F 1015.1 in Calm     48 % 0.0 in 0.0 W/m2 CLR
21:17 28.8 °F 16.4 °F 1015.1 in Calm     47 % 0.0 in 0.0 W/m2 CLR
21:22 28.3 °F 17.8 °F 1015.1 in Calm     53 % 0.0 in 0.0 W/m2 CLR
21:27 27.7 °F 18.1 °F 1015.1 in Calm     56 % 0.0 in 0.0 W/m2 CLR
21:32 27.0 °F 18.3 °F 1015.1 in Calm     59 % 0.0 in 0.0 W/m2 CLR
21:37 26.6 °F 18.2 °F 1015.5 in Calm     60 % 0.0 in 0.0 W/m2 CLR
21:42 26.2 °F 18.1 °F 1015.5 in Calm     61 % 0.0 in 0.0 W/m2 CLR
21:47 25.8 °F 18.0 °F 1015.5 in NE 9.3 mph 9.3 mph 62 % 0.0 in 0.0 W/m2 CLR
21:52 25.8 °F 18.3 °F 1015.5 in NE 5.6 mph 6.3 mph 63 % 0.0 in 0.0 W/m2 CLR
21:57 25.6 °F 18.6 °F 1015.8 in Calm   0.6 mph 65 % 0.0 in 0.0 W/m2 CLR
22:02 25.3 °F 18.5 °F 1015.8 in NE 7.4 mph 7.4 mph 66 % 0.0 in 0.0 W/m2 CLR
22:07 25.1 °F 18.8 °F 1015.8 in North 9.3 mph 9.3 mph 68 % 0.0 in 0.0 W/m2 CLR
22:12 24.8 °F 18.9 °F 1015.8 in Calm     70 % 0.0 in 0.0 W/m2 CLR
22:17 24.6 °F 19.0 °F 1016.1 in Calm     71 % 0.0 in 0.0 W/m2 CLR
22:22 24.4 °F 18.8 °F 1016.1 in Calm     71 % 0.0 in 0.0 W/m2 CLR
22:27 24.3 °F 18.9 °F 1016.1 in Calm     72 % 0.0 in 0.0 W/m2 CLR
22:32 24.2 °F 19.0 °F 1016.5 in Calm     73 % 0.0 in 0.0 W/m2 CLR
22:37 24.1 °F 19.2 °F 1016.5 in NE 11.1 mph 11.1 mph 74 % 0.0 in 0.0 W/m2 CLR
22:42 24.0 °F 19.1 °F 1016.5 in Calm     74 % 0.0 in 0.0 W/m2 CLR
22:47 23.9 °F 19.2 °F 1016.5 in Calm     75 % 0.0 in 0.0 W/m2 CLR
22:53 23.7 °F 19.0 °F 1016.5 in NE 8.0 mph 8.0 mph 75 % 0.0 in 0.0 W/m2 CLR
22:58 23.6 °F 19.3 °F 1016.5 in Calm     77 % 0.0 in 0.0 W/m2 CLR
23:03 23.4 °F 19.2 °F 1016.8 in Calm     77 % 0.0 in 0.0 W/m2 CLR
23:08 23.3 °F 19.3 °F 1016.8 in Calm     78 % 0.0 in 0.0 W/m2 CLR
23:13 23.2 °F 19.2 °F 1016.8 in Calm     78 % 0.0 in 0.0 W/m2 CLR
23:18 23.2 °F 19.3 °F 1016.8 in Calm     79 % 0.0 in 0.0 W/m2 CLR
23:23 23.1 °F 19.2 °F 1016.8 in Calm     79 % 0.0 in 0.0 W/m2 CLR
23:28 23.0 °F 19.4 °F 1016.8 in Calm     80 % 0.0 in 0.0 W/m2 CLR
23:33 22.9 °F 19.3 °F 1016.8 in Calm     80 % 0.0 in 0.0 W/m2 CLR
23:38 22.8 °F 19.3 °F 1016.8 in Calm     81 % 0.0 in 0.0 W/m2 CLR
23:43 22.7 °F 19.2 °F 1017.2 in Calm     81 % 0.0 in 0.0 W/m2 CLR
23:48 22.6 °F 19.1 °F 1017.2 in Calm     81 % 0.0 in 0.0 W/m2 CLR
23:53 22.5 °F 19.1 °F 1017.2 in Calm     81 % 0.0 in 0.0 W/m2 CLR
23:58 22.4 °F 18.9 °F 1017.2 in Calm     81 % 0.0 in 0.0 W/m2 CLR
Lo Temps de Massalio
Compliments of Weather Underground - 1.25 mb